MDLR/LRM METAR and TAF weather

Enter ICAO airport designator
Station Type Date Time Source
MDLR METAR 2021/05/15 01:00 UTC NOAA

MDLR 150100Z 12015KT 9999 FEW018 27/23 Q1014 NOSIG


Station Type Date Time Source
MDLR Decoded METAR 2021/05/15 01:00 UTC NOAA

La Romana International Airport, Dominican Republic (MDLR) 18-25N 068-57W
May 14, 2021 - 09:00 PM EDT / 2021.05.15 0100 UTC
Wind: from the ESE (120 degrees) at 17 MPH (15 KT):0
Visibility: greater than 7 mile(s):0
Sky conditions: mostly clear
Temperature: 80 F (27 C)
Dew Point: 73 F (23 C)
Relative Humidity: 78%
Pressure (altimeter): 29.94 in. Hg (1014 hPa)
ob: MDLR 150100Z 12015KT 9999 FEW018 27/23 Q1014 NOSIG
cycle: 1

Station Type Date Time Source
MDLR TAF 2021/05/14 18:07 UTC NOAA

TAF MDLR 141600Z 1418/1518 12011KT 9999 SCT018 PROB30 1419/1423 8000 SH BKN016

Example: see airport list